createdAt,value
2018-03-24T00:01:04.381Z,4.93
2018-03-24T00:03:34.574Z,4.86
2018-03-24T00:06:02.970Z,4.93
2018-03-24T00:08:33.111Z,4.99
2018-03-24T00:11:02.363Z,4.86
2018-03-24T00:13:31.683Z,4.84
2018-03-24T00:16:01.062Z,4.82
2018-03-24T00:18:29.462Z,4.78
2018-03-24T00:20:58.359Z,4.71
2018-03-24T00:23:28.559Z,4.58
2018-03-24T00:25:59.502Z,4.45
2018-03-24T00:28:28.194Z,4.45
2018-03-24T00:30:56.550Z,4.40
2018-03-24T00:33:26.062Z,4.44
2018-03-24T00:35:55.830Z,4.31
2018-03-24T00:38:26.016Z,4.27
2018-03-24T00:40:54.445Z,4.34
2018-03-24T00:43:24.282Z,4.22
2018-03-24T00:45:52.683Z,4.03
2018-03-24T00:48:22.606Z,4.18
2018-03-24T00:50:51.800Z,4.27
2018-03-24T00:53:20.763Z,4.30
2018-03-24T00:55:50.098Z,4.28
2018-03-24T00:58:19.378Z,4.29
2018-03-24T01:00:48.631Z,4.33
2018-03-24T01:03:17.986Z,4.31
2018-03-24T01:05:47.186Z,4.35
2018-03-24T01:08:16.924Z,4.31
2018-03-24T01:10:46.067Z,4.33
2018-03-24T01:13:15.340Z,4.36
2018-03-24T01:15:44.116Z,4.37
2018-03-24T01:18:13.452Z,4.31
2018-03-24T01:20:41.900Z,4.37
2018-03-24T01:23:11.572Z,4.40
2018-03-24T01:25:40.043Z,4.30
2018-03-24T01:28:08.715Z,4.25
2018-03-24T01:30:38.015Z,4.27
2018-03-24T01:33:07.403Z,4.24
2018-03-24T01:35:36.626Z,4.39
2018-03-24T01:38:05.178Z,4.44
2018-03-24T01:40:35.252Z,4.25
2018-03-24T01:43:05.457Z,4.37
2018-03-24T01:45:34.864Z,4.48
2018-03-24T01:48:03.297Z,4.39
2018-03-24T01:50:32.458Z,4.36
2018-03-24T01:53:00.896Z,4.40
2018-03-24T01:55:30.728Z,4.39
2018-03-24T01:57:59.147Z,4.35
2018-03-24T02:00:30.179Z,4.37
2018-03-24T02:02:58.614Z,4.34
2018-03-24T02:05:29.739Z,4.36
2018-03-24T02:07:58.151Z,4.36
2018-03-24T02:10:27.630Z,4.41
2018-03-24T02:12:57.459Z,4.42
2018-03-24T02:15:27.562Z,4.44
2018-03-24T02:17:57.310Z,4.43
2018-03-24T02:20:27.687Z,4.41
2018-03-24T02:22:56.815Z,4.48
2018-03-24T02:25:28.430Z,4.64
2018-03-24T02:27:59.380Z,4.60
2018-03-24T02:30:28.515Z,4.41
2018-03-24T02:32:58.390Z,4.45
2018-03-24T02:35:26.788Z,4.48
2018-03-24T02:37:57.604Z,4.52
2018-03-24T02:40:26.500Z,4.50
2018-03-24T02:42:55.795Z,4.55
2018-03-24T02:45:24.179Z,4.59
2018-03-24T02:47:52.589Z,4.54
2018-03-24T02:50:20.931Z,4.49
2018-03-24T02:52:50.473Z,4.38
2018-03-24T02:55:18.805Z,4.29
2018-03-24T02:57:48.563Z,4.18
2018-03-24T03:00:17.959Z,4.13
2018-03-24T03:02:47.893Z,4.04
2018-03-24T03:05:17.124Z,3.86
2018-03-24T03:07:46.597Z,3.83
2018-03-24T03:10:15.849Z,3.85
2018-03-24T03:12:45.055Z,3.89
2018-03-24T03:15:13.649Z,3.88
2018-03-24T03:17:42.885Z,3.97
2018-03-24T03:20:11.249Z,4.08
2018-03-24T03:22:40.733Z,4.16
2018-03-24T03:25:09.083Z,4.25
2018-03-24T03:27:37.905Z,4.21
2018-03-24T03:33:14.615Z,4.16
2018-03-24T03:35:43.000Z,4.07
2018-03-24T03:38:11.442Z,4.06
2018-03-24T03:40:41.934Z,4.07
2018-03-24T03:43:11.263Z,4.05
2018-03-24T03:45:41.366Z,3.97
2018-03-24T03:48:10.502Z,3.91
2018-03-24T03:50:38.853Z,3.84
2018-03-24T03:53:07.258Z,3.87
2018-03-24T03:55:37.035Z,3.86
2018-03-24T03:58:05.641Z,3.96
2018-03-24T04:00:34.902Z,4.01
2018-03-24T04:03:05.071Z,4.05
2018-03-24T04:05:35.217Z,4.12
2018-03-24T04:08:04.363Z,3.97
2018-03-24T04:10:32.746Z,3.96
2018-03-24T04:13:01.112Z,3.85
2018-03-24T04:15:29.743Z,3.76
2018-03-24T04:17:58.563Z,3.69
2018-03-24T04:20:27.723Z,3.76
2018-03-24T04:22:56.091Z,3.88
2018-03-24T04:25:24.772Z,3.89
2018-03-24T04:27:53.159Z,3.86
2018-03-24T04:30:22.561Z,3.84
2018-03-24T04:32:51.782Z,3.86
2018-03-24T04:35:21.013Z,3.75
2018-03-24T04:37:50.311Z,3.68
2018-03-24T04:40:19.399Z,3.71
2018-03-24T04:42:48.507Z,3.68
2018-03-24T04:45:16.934Z,3.59
2018-03-24T04:47:46.294Z,3.58
2018-03-24T04:50:16.929Z,3.41
2018-03-24T04:52:45.324Z,3.39
2018-03-24T04:55:15.464Z,3.38
2018-03-24T04:57:44.841Z,3.26
2018-03-24T05:00:13.347Z,3.23
2018-03-24T05:02:41.692Z,3.09
2018-03-24T05:05:10.355Z,3.04
2018-03-24T05:07:39.880Z,2.95
2018-03-24T05:10:08.298Z,3.01
2018-03-24T05:12:37.483Z,3.09
2018-03-24T05:15:06.555Z,3.15
2018-03-24T05:17:35.167Z,3.26
2018-03-24T05:20:03.962Z,3.34
2018-03-24T05:22:33.326Z,3.21
2018-03-24T05:25:02.008Z,3.09
2018-03-24T05:27:32.434Z,2.95
2018-03-24T05:30:01.215Z,2.79
2018-03-24T05:32:29.555Z,2.85
2018-03-24T05:34:57.976Z,2.83
2018-03-24T05:37:28.514Z,2.74
2018-03-24T05:39:57.179Z,2.69
2018-03-24T05:42:27.221Z,2.69
2018-03-24T05:44:55.639Z,2.65
2018-03-24T05:47:26.760Z,2.65
2018-03-24T05:49:56.403Z,2.65
2018-03-24T05:52:24.747Z,2.75
2018-03-24T05:54:53.733Z,2.74
2018-03-24T05:57:22.360Z,2.66
2018-03-24T05:59:51.020Z,2.71
2018-03-24T06:02:19.673Z,2.75
2018-03-24T06:04:49.502Z,2.88
2018-03-24T06:07:18.767Z,2.81
2018-03-24T06:09:47.412Z,2.89
2018-03-24T06:12:16.081Z,2.95
2018-03-24T06:14:45.022Z,2.94
2018-03-24T06:17:13.761Z,2.97
2018-03-24T06:19:44.888Z,3.08
2018-03-24T06:22:13.324Z,3.18
2018-03-24T06:24:42.074Z,3.32
2018-03-24T06:27:10.751Z,3.07
2018-03-24T06:29:40.777Z,3.12
2018-03-24T06:32:09.872Z,3.16
2018-03-24T06:34:39.251Z,3.18
2018-03-24T06:37:09.396Z,2.95
2018-03-24T06:39:38.787Z,2.92
2018-03-24T06:42:07.202Z,3.01
2018-03-24T06:44:36.706Z,3.12
2018-03-24T06:47:05.092Z,3.10
2018-03-24T06:49:34.760Z,3.15
2018-03-24T06:52:03.889Z,3.16
2018-03-24T06:54:32.946Z,3.24
2018-03-24T06:57:02.258Z,3.35
2018-03-24T06:59:30.684Z,3.31
2018-03-24T07:01:59.973Z,3.37
2018-03-24T07:04:28.387Z,3.39
2018-03-24T07:06:57.828Z,3.46
2018-03-24T07:09:27.008Z,3.51
2018-03-24T07:11:55.379Z,3.61
2018-03-24T07:14:24.072Z,3.74
2018-03-24T07:16:53.317Z,3.87
2018-03-24T07:19:22.462Z,3.99
2018-03-24T07:21:52.088Z,4.05
2018-03-24T07:24:21.069Z,4.18
2018-03-24T07:26:49.607Z,4.33
2018-03-24T07:29:18.455Z,4.58
2018-03-24T07:31:49.893Z,4.67
2018-03-24T07:34:19.205Z,4.85
2018-03-24T07:36:49.106Z,4.90
2018-03-24T07:39:18.838Z,4.98
2018-03-24T07:41:47.180Z,5.07
2018-03-24T07:44:15.570Z,5.17
2018-03-24T07:46:44.561Z,5.22
2018-03-24T07:49:12.934Z,5.31
2018-03-24T07:51:42.206Z,5.44
2018-03-24T07:54:11.183Z,5.53
2018-03-24T07:56:40.276Z,5.65
2018-03-24T07:59:09.411Z,5.94
2018-03-24T08:01:38.575Z,5.92
2018-03-24T08:04:07.943Z,5.77
2018-03-24T08:06:36.363Z,5.93
2018-03-24T08:09:05.572Z,6.09
2018-03-24T08:11:34.810Z,6.22
2018-03-24T08:14:05.008Z,5.92
2018-03-24T08:16:33.959Z,5.97
2018-03-24T08:19:04.218Z,6.29
2018-03-24T08:21:33.911Z,6.47
2018-03-24T08:24:02.311Z,6.58
2018-03-24T08:26:32.910Z,6.83
2018-03-24T08:29:01.648Z,6.77
2018-03-24T08:31:30.129Z,6.69
2018-03-24T08:33:58.530Z,7.17
2018-03-24T08:36:27.760Z,7.24
2018-03-24T08:38:58.555Z,7.25
2018-03-24T08:41:27.465Z,7.24
2018-03-24T08:43:58.119Z,7.39
2018-03-24T08:46:26.533Z,7.41
2018-03-24T08:48:55.993Z,7.67
2018-03-24T08:51:24.327Z,7.87
2018-03-24T08:53:52.948Z,8.15
2018-03-24T08:56:21.317Z,8.27
2018-03-24T08:58:51.135Z,8.36
2018-03-24T09:01:19.669Z,8.41
2018-03-24T09:03:49.299Z,8.50
2018-03-24T09:06:17.957Z,8.54
2018-03-24T09:08:48.804Z,8.03
2018-03-24T09:11:17.234Z,8.11
2018-03-24T09:13:45.563Z,8.48
2018-03-24T09:16:14.800Z,8.80
2018-03-24T09:18:44.072Z,8.95
2018-03-24T09:21:13.138Z,9.01
2018-03-24T09:23:42.286Z,9.27
2018-03-24T09:26:11.743Z,9.19
2018-03-24T09:28:40.980Z,9.20
2018-03-24T09:31:09.379Z,9.06
2018-03-24T09:33:38.531Z,9.27
2018-03-24T09:36:06.957Z,9.47
2018-03-24T09:38:36.731Z,9.35
2018-03-24T09:41:05.195Z,9.61
2018-03-24T09:43:33.528Z,9.73
2018-03-24T09:46:01.901Z,9.94
2018-03-24T09:48:30.228Z,9.47
2018-03-24T09:50:59.886Z,9.49
2018-03-24T09:53:28.473Z,9.49
2018-03-24T09:55:58.315Z,9.40
2018-03-24T09:58:29.405Z,9.37
2018-03-24T10:00:59.585Z,9.42
2018-03-24T10:03:28.004Z,9.20
2018-03-24T10:05:56.406Z,9.10
2018-03-24T10:08:26.394Z,9.21
2018-03-24T10:10:56.260Z,9.29
2018-03-24T10:13:25.938Z,9.25
2018-03-24T10:15:54.604Z,9.46
2018-03-24T10:18:22.982Z,9.34
2018-03-24T10:24:23.611Z,9.43
2018-03-24T10:26:52.540Z,9.69
2018-03-24T10:29:21.623Z,9.81
2018-03-24T10:31:52.425Z,9.79
2018-03-24T10:34:21.967Z,9.77
2018-03-24T10:36:52.546Z,9.67
2018-03-24T10:39:21.111Z,9.81
2018-03-24T10:41:50.383Z,9.75
2018-03-24T10:44:19.647Z,9.66
2018-03-24T10:46:48.765Z,9.61
2018-03-24T10:49:17.512Z,9.64
2018-03-24T10:51:46.723Z,9.75
2018-03-24T10:54:16.003Z,9.66
2018-03-24T10:56:44.964Z,9.78
2018-03-24T10:59:16.415Z,9.73
2018-03-24T11:01:45.614Z,9.70
2018-03-24T11:04:15.393Z,9.84
2018-03-24T11:06:43.816Z,10.01
2018-03-24T11:09:13.115Z,10.35
2018-03-24T11:11:41.473Z,10.82
2018-03-24T11:14:10.503Z,11.08
2018-03-24T11:16:40.924Z,11.12
2018-03-24T11:19:09.303Z,11.62
2018-03-24T11:21:37.678Z,11.70
2018-03-24T11:24:06.687Z,10.80
2018-03-24T11:26:36.021Z,10.67
2018-03-24T11:29:05.704Z,10.54
2018-03-24T11:31:34.592Z,10.74
2018-03-24T11:34:06.249Z,10.62
2018-03-24T11:36:36.020Z,10.38
2018-03-24T11:39:08.159Z,10.14
2018-03-24T11:41:39.056Z,10.15
2018-03-24T11:44:07.405Z,10.30
2018-03-24T11:46:35.817Z,10.37
2018-03-24T11:49:04.942Z,10.35
2018-03-24T11:51:34.083Z,10.61
2018-03-24T11:54:03.211Z,10.46
2018-03-24T11:56:36.277Z,10.35
2018-03-24T11:59:06.383Z,10.27
2018-03-24T12:01:35.108Z,10.36
2018-03-24T12:04:03.555Z,10.41
2018-03-24T12:06:31.975Z,10.92
2018-03-24T12:09:01.166Z,10.87
2018-03-24T12:11:31.183Z,10.93
2018-03-24T12:13:59.891Z,10.85
2018-03-24T12:16:30.022Z,10.88
2018-03-24T12:18:59.220Z,11.04
2018-03-24T12:21:27.583Z,10.91
2018-03-24T12:23:55.972Z,11.40
2018-03-24T12:26:28.205Z,11.64
2018-03-24T12:28:57.326Z,11.67
2018-03-24T12:31:26.432Z,11.23
2018-03-24T12:33:59.437Z,11.14
2018-03-24T12:36:28.668Z,11.11
2018-03-24T12:38:58.491Z,10.76
2018-03-24T12:41:28.418Z,10.89
2018-03-24T12:43:57.498Z,11.24
2018-03-24T12:46:25.867Z,11.72
2018-03-24T12:48:54.845Z,12.15
2018-03-24T12:51:24.143Z,12.29
2018-03-24T12:53:52.442Z,12.36
2018-03-24T12:56:21.216Z,12.89
2018-03-24T12:58:50.488Z,12.83
2018-03-24T13:01:18.883Z,12.92
2018-03-24T13:03:47.234Z,13.45
2018-03-24T13:06:15.655Z,13.86
2018-03-24T13:08:43.993Z,13.60
2018-03-24T13:11:12.841Z,14.13
2018-03-24T13:13:41.317Z,14.21
2018-03-24T13:16:10.002Z,14.33
2018-03-24T13:18:38.341Z,14.48
2018-03-24T13:21:07.583Z,13.34
2018-03-24T13:23:36.059Z,13.74
2018-03-24T13:26:04.440Z,14.60
2018-03-24T13:28:33.019Z,14.70
2018-03-24T13:31:01.444Z,15.14
2018-03-24T13:33:29.780Z,15.19
2018-03-24T13:35:58.939Z,14.73
2018-03-24T13:38:29.531Z,15.25
2018-03-24T13:40:57.884Z,14.03
2018-03-24T13:43:26.554Z,14.52
2018-03-24T13:45:55.580Z,14.92
2018-03-24T13:48:24.146Z,14.88
2018-03-24T13:50:53.222Z,15.69
2018-03-24T13:53:21.583Z,15.10
2018-03-24T13:55:49.946Z,15.44
2018-03-24T13:58:18.365Z,15.27
2018-03-24T14:00:48.561Z,14.95
2018-03-24T14:03:16.914Z,14.89
2018-03-24T14:05:45.242Z,14.88
2018-03-24T14:08:13.673Z,15.22
2018-03-24T14:10:45.100Z,15.28
2018-03-24T14:13:14.610Z,15.52
2018-03-24T14:15:43.724Z,15.77
2018-03-24T14:18:13.055Z,15.80
2018-03-24T14:20:41.761Z,15.29
2018-03-24T14:23:12.946Z,15.67
2018-03-24T14:25:41.277Z,15.50
2018-03-24T14:28:12.688Z,15.50
2018-03-24T14:30:41.947Z,15.57
2018-03-24T14:33:10.320Z,15.84
2018-03-24T14:35:38.663Z,15.95
2018-03-24T14:38:07.956Z,16.44
2018-03-24T14:40:36.392Z,16.33
2018-03-24T14:43:04.764Z,16.59
2018-03-24T14:45:33.099Z,16.52
2018-03-24T14:48:02.520Z,16.77
2018-03-24T14:50:31.446Z,16.41
2018-03-24T14:52:59.846Z,16.93
2018-03-24T14:55:28.190Z,16.96
2018-03-24T14:57:57.531Z,16.90
2018-03-24T15:00:26.255Z,16.79
2018-03-24T15:02:54.726Z,16.60
2018-03-24T15:05:23.144Z,17.68
2018-03-24T15:07:52.400Z,17.71
2018-03-24T15:10:21.278Z,18.12
2018-03-24T15:12:49.688Z,17.72
2018-03-24T15:15:18.954Z,17.72
2018-03-24T15:17:47.352Z,17.55
2018-03-24T15:20:15.687Z,17.86
2018-03-24T15:22:44.132Z,17.88
2018-03-24T15:25:14.110Z,17.84
2018-03-24T15:27:42.849Z,18.69
2018-03-24T15:30:24.520Z,18.86
2018-03-24T15:32:53.841Z,18.60
2018-03-24T15:35:32.393Z,18.89
2018-03-24T15:38:01.316Z,18.15
2018-03-24T15:40:31.484Z,17.92
2018-03-24T15:42:59.867Z,17.12
2018-03-24T15:45:28.378Z,17.36
2018-03-24T15:47:56.791Z,17.09
2018-03-24T15:50:25.164Z,17.72
2018-03-24T15:52:53.616Z,17.89
2018-03-24T15:55:22.273Z,17.75
2018-03-24T15:57:51.520Z,17.12
2018-03-24T16:00:19.858Z,17.52
2018-03-24T16:02:48.228Z,17.57
2018-03-24T16:05:16.587Z,17.29
2018-03-24T16:07:45.265Z,17.01
2018-03-24T16:10:14.385Z,17.49
2018-03-24T16:12:46.599Z,17.78
2018-03-24T16:15:16.506Z,16.87
2018-03-24T16:17:44.841Z,18.30
2018-03-24T16:20:13.176Z,18.54
2018-03-24T16:22:41.556Z,18.57
2018-03-24T16:25:10.178Z,18.73
2018-03-24T16:27:39.468Z,18.77
2018-03-24T16:30:07.831Z,18.94
2018-03-24T16:32:36.199Z,19.02
2018-03-24T16:35:07.311Z,19.15
2018-03-24T16:37:36.423Z,18.56
2018-03-24T16:40:05.488Z,18.31
2018-03-24T16:42:34.026Z,18.30
2018-03-24T16:45:02.742Z,17.96
2018-03-24T16:47:31.152Z,18.11
2018-03-24T16:49:59.777Z,18.58
2018-03-24T16:52:28.196Z,18.57
2018-03-24T16:54:56.617Z,19.03
2018-03-24T16:57:26.297Z,18.90
2018-03-24T16:59:54.720Z,18.65
2018-03-24T17:02:25.175Z,18.22
2018-03-24T17:04:53.550Z,17.97
2018-03-24T17:07:23.227Z,17.33
2018-03-24T17:09:51.569Z,17.24
2018-03-24T17:12:20.387Z,17.57
2018-03-24T17:14:51.335Z,16.99
2018-03-24T17:17:24.013Z,16.41
2018-03-24T17:19:52.348Z,16.27
2018-03-24T17:22:21.247Z,15.67
2018-03-24T17:24:49.586Z,15.52
2018-03-24T17:27:18.912Z,15.33
2018-03-24T17:29:51.016Z,15.22
2018-03-24T17:32:19.391Z,14.61
2018-03-24T17:34:48.016Z,14.11
2018-03-24T17:37:17.457Z,13.73
2018-03-24T17:39:46.982Z,13.19
2018-03-24T17:42:16.156Z,13.07
2018-03-24T17:44:45.544Z,12.89
2018-03-24T17:47:14.150Z,12.77
2018-03-24T17:49:42.562Z,12.63
2018-03-24T17:52:11.740Z,12.49
2018-03-24T17:54:40.792Z,12.42
2018-03-24T17:57:09.135Z,12.16
2018-03-24T17:59:37.536Z,11.92
2018-03-24T18:02:06.561Z,11.84
2018-03-24T18:04:35.674Z,11.76
2018-03-24T18:07:04.474Z,11.78
2018-03-24T18:09:32.923Z,11.62
2018-03-24T18:12:02.327Z,11.54
2018-03-24T18:14:32.033Z,11.60
2018-03-24T18:17:00.927Z,11.49
2018-03-24T18:19:30.496Z,11.23
2018-03-24T18:21:58.809Z,9.67
2018-03-24T18:24:28.043Z,10.04
2018-03-24T18:26:57.538Z,10.10
2018-03-24T18:29:27.449Z,10.17
2018-03-24T18:31:56.582Z,10.13
2018-03-24T18:34:25.246Z,10.35
2018-03-24T18:36:55.324Z,10.17
2018-03-24T18:39:24.559Z,10.17
2018-03-24T18:41:53.860Z,10.35
2018-03-24T18:44:23.237Z,10.11
2018-03-24T18:46:52.550Z,10.04
2018-03-24T18:49:21.185Z,10.01
2018-03-24T18:51:49.521Z,10.02
2018-03-24T18:54:18.292Z,9.79
2018-03-24T18:56:48.153Z,9.77
2018-03-24T18:59:17.544Z,9.55
2018-03-24T19:01:47.634Z,9.64
2018-03-24T19:04:16.072Z,9.52
2018-03-24T19:06:44.458Z,9.42
2018-03-24T19:09:13.633Z,9.22
2018-03-24T19:11:42.775Z,9.08
2018-03-24T19:14:11.840Z,9.10
2018-03-24T19:16:40.551Z,8.93
2018-03-24T19:19:09.707Z,8.60
2018-03-24T19:21:38.081Z,8.47
2018-03-24T19:24:06.815Z,8.60
2018-03-24T19:26:35.167Z,8.81
2018-03-24T19:29:03.650Z,8.71
2018-03-24T19:31:32.441Z,8.71
2018-03-24T19:34:00.779Z,8.44
2018-03-24T19:36:29.198Z,8.33
2018-03-24T19:38:58.487Z,8.26
2018-03-24T19:41:26.955Z,8.20
2018-03-24T19:43:55.310Z,8.22
2018-03-24T19:46:23.722Z,8.26
2018-03-24T19:48:53.002Z,8.32
2018-03-24T19:51:22.098Z,8.24
2018-03-24T19:53:51.388Z,8.18
2018-03-24T19:56:21.525Z,8.03
2018-03-24T19:58:49.901Z,7.87
2018-03-24T20:01:22.085Z,7.88
2018-03-24T20:03:52.357Z,7.70
2018-03-24T20:06:20.735Z,7.47
2018-03-24T20:08:49.464Z,7.53
2018-03-24T20:11:17.808Z,7.21
2018-03-24T20:13:46.227Z,7.25
2018-03-24T20:16:14.560Z,7.20
2018-03-24T20:18:43.086Z,7.36
2018-03-24T20:21:13.826Z,7.31
2018-03-24T20:23:43.366Z,7.23
2018-03-24T20:26:11.727Z,7.14
2018-03-24T20:28:41.596Z,7.12
2018-03-24T20:31:09.939Z,7.09
2018-03-24T20:33:38.806Z,7.03
2018-03-24T20:36:07.139Z,6.89
2018-03-24T20:38:35.561Z,6.96
2018-03-24T20:41:04.944Z,6.78
2018-03-24T20:43:33.319Z,6.93
2018-03-24T20:46:01.768Z,6.83
2018-03-24T20:48:30.334Z,6.60
2018-03-24T20:50:59.343Z,6.61
2018-03-24T20:53:27.711Z,6.49
2018-03-24T20:55:57.046Z,6.53
2018-03-24T20:58:25.655Z,6.65
2018-03-24T21:00:55.536Z,6.58
2018-03-24T21:03:25.506Z,6.67
2018-03-24T21:05:55.574Z,6.72
2018-03-24T21:08:24.017Z,6.59
2018-03-24T21:10:52.904Z,6.24
2018-03-24T21:13:22.164Z,6.22
2018-03-24T21:15:50.513Z,6.09
2018-03-24T21:18:20.249Z,5.89
2018-03-24T21:20:49.535Z,6.11
2018-03-24T21:23:18.810Z,6.03
2018-03-24T21:25:47.407Z,5.88
2018-03-24T21:28:15.753Z,5.63
2018-03-24T21:30:44.166Z,5.47
2018-03-24T21:33:13.352Z,5.69
2018-03-24T21:35:41.712Z,5.63
2018-03-24T21:38:10.781Z,5.58
2018-03-24T21:40:39.437Z,5.64
2018-03-24T21:43:07.766Z,5.68
2018-03-24T21:45:36.575Z,5.61
2018-03-24T21:48:04.907Z,5.54
2018-03-24T21:50:33.293Z,5.41
2018-03-24T21:53:01.616Z,5.52
2018-03-24T21:55:30.900Z,5.46
2018-03-24T21:58:01.292Z,5.28
2018-03-24T22:00:31.203Z,5.32
2018-03-24T22:03:00.526Z,5.27
2018-03-24T22:05:30.659Z,5.35
2018-03-24T22:07:58.989Z,5.32
2018-03-24T22:10:27.723Z,5.41
2018-03-24T22:12:56.099Z,5.37
2018-03-24T22:15:24.708Z,5.35
2018-03-24T22:17:53.900Z,5.24
2018-03-24T22:20:23.501Z,5.05
2018-03-24T22:22:56.451Z,4.89
2018-03-24T22:25:25.526Z,4.95
2018-03-24T22:27:54.766Z,4.94
2018-03-24T22:30:23.538Z,4.88
2018-03-24T22:32:53.631Z,4.84
2018-03-24T22:35:22.669Z,4.80
2018-03-24T22:37:52.405Z,4.81
2018-03-24T22:40:22.186Z,4.73
2018-03-24T22:42:50.516Z,4.69
2018-03-24T22:45:18.987Z,4.70
2018-03-24T22:47:48.589Z,4.78
2018-03-24T22:50:16.943Z,4.72
2018-03-24T22:52:46.139Z,4.63
2018-03-24T22:55:14.515Z,4.46
2018-03-24T22:57:42.849Z,4.55
2018-03-24T23:00:12.448Z,4.47
2018-03-24T23:02:41.784Z,4.40
2018-03-24T23:05:11.028Z,4.26
2018-03-24T23:07:40.066Z,4.41
2018-03-24T23:10:10.141Z,4.36
2018-03-24T23:12:39.085Z,4.14
2018-03-24T23:15:07.466Z,4.10
2018-03-24T23:17:35.878Z,3.99
2018-03-24T23:20:04.292Z,3.93
2018-03-24T23:22:32.645Z,3.95
2018-03-24T23:25:02.821Z,4.05
2018-03-24T23:27:32.627Z,3.93
2018-03-24T23:30:00.959Z,4.08
2018-03-24T23:32:30.231Z,3.86
2018-03-24T23:34:58.559Z,3.88
2018-03-24T23:37:27.013Z,3.95
2018-03-24T23:39:56.721Z,3.94
2018-03-24T23:42:27.359Z,3.74
2018-03-24T23:44:56.511Z,3.91
2018-03-24T23:47:24.911Z,3.87
2018-03-24T23:49:54.178Z,3.82
2018-03-24T23:52:23.426Z,3.64
2018-03-24T23:54:52.171Z,3.50
2018-03-24T23:57:20.553Z,3.49
2018-03-24T23:59:48.879Z,3.43
